sensor_id;sensor_type;location;lat;lon;timestamp;pressure;altitude;pressure_sealevel;temperature;humidity
6038;BME280;3047;42.600;23.470;2023-08-06T00:00:09;92053.88;;;20.34;100.00
6038;BME280;3047;42.600;23.470;2023-08-06T00:02:36;92044.03;;;20.39;100.00
6038;BME280;3047;42.600;23.470;2023-08-06T00:05:03;91998.16;;;20.15;100.00
6038;BME280;3047;42.600;23.470;2023-08-06T00:07:29;92064.16;;;20.64;100.00
6038;BME280;3047;42.600;23.470;2023-08-06T00:09:56;92061.63;;;20.74;100.00
6038;BME280;3047;42.600;23.470;2023-08-06T00:12:23;92056.25;;;20.77;100.00
6038;BME280;3047;42.600;23.470;2023-08-06T00:14:51;92041.72;;;20.87;100.00
6038;BME280;3047;42.600;23.470;2023-08-06T00:17:19;92018.56;;;20.78;100.00
6038;BME280;3047;42.600;23.470;2023-08-06T00:19:45;92029.16;;;20.94;100.00
6038;BME280;3047;42.600;23.470;2023-08-06T00:22:12;92020.25;;;20.98;100.00
6038;BME280;3047;42.600;23.470;2023-08-06T00:24:39;92033.22;;;21.06;100.00
6038;BME280;3047;42.600;23.470;2023-08-06T00:27:05;92034.88;;;21.07;100.00
6038;BME280;3047;42.600;23.470;2023-08-06T00:29:32;92032.31;;;21.07;100.00
6038;BME280;3047;42.600;23.470;2023-08-06T00:32:00;92038.66;;;21.03;100.00
6038;BME280;3047;42.600;23.470;2023-08-06T00:34:27;92020.03;;;21.11;100.00
6038;BME280;3047;42.600;23.470;2023-08-06T00:36:54;92011.78;;;21.17;100.00
6038;BME280;3047;42.600;23.470;2023-08-06T00:39:20;92010.72;;;21.19;100.00
6038;BME280;3047;42.600;23.470;2023-08-06T00:41:47;92016.38;;;21.13;100.00
6038;BME280;3047;42.600;23.470;2023-08-06T00:44:13;92015.41;;;21.14;100.00
6038;BME280;3047;42.600;23.470;2023-08-06T00:46:40;92018.13;;;21.22;100.00
6038;BME280;3047;42.600;23.470;2023-08-06T00:49:08;92008.41;;;21.26;100.00
6038;BME280;3047;42.600;23.470;2023-08-06T00:51:35;92000.03;;;21.24;100.00
6038;BME280;3047;42.600;23.470;2023-08-06T00:54:02;91966.06;;;21.01;100.00
6038;BME280;3047;42.600;23.470;2023-08-06T00:56:29;91994.34;;;21.20;100.00
6038;BME280;3047;42.600;23.470;2023-08-06T00:58:56;92006.50;;;21.18;100.00
6038;BME280;3047;42.600;23.470;2023-08-06T01:01:22;92007.72;;;21.14;100.00
6038;BME280;3047;42.600;23.470;2023-08-06T01:03:49;91987.56;;;21.10;100.00
6038;BME280;3047;42.600;23.470;2023-08-06T01:06:19;91976.09;;;21.14;100.00
6038;BME280;3047;42.600;23.470;2023-08-06T01:08:55;91971.09;;;21.12;100.00
6038;BME280;3047;42.600;23.470;2023-08-06T01:11:28;91927.41;;;20.93;100.00
6038;BME280;3047;42.600;23.470;2023-08-06T01:14:02;91954.88;;;21.12;100.00
6038;BME280;3047;42.600;23.470;2023-08-06T01:16:33;91964.34;;;21.21;100.00
6038;BME280;3047;42.600;23.470;2023-08-06T01:19:00;91956.78;;;21.19;100.00
6038;BME280;3047;42.600;23.470;2023-08-06T01:21:28;91943.00;;;21.11;100.00
6038;BME280;3047;42.600;23.470;2023-08-06T01:23:54;91939.34;;;21.13;100.00
6038;BME280;3047;42.600;23.470;2023-08-06T01:26:25;91944.88;;;21.18;100.00
6038;BME280;3047;42.600;23.470;2023-08-06T01:28:59;91945.56;;;21.20;100.00
6038;BME280;3047;42.600;23.470;2023-08-06T01:31:28;91940.03;;;21.15;100.00
6038;BME280;3047;42.600;23.470;2023-08-06T01:33:58;91940.13;;;21.14;100.00
6038;BME280;3047;42.600;23.470;2023-08-06T01:36:28;91946.91;;;21.15;100.00
6038;BME280;3047;42.600;23.470;2023-08-06T01:38:55;91951.22;;;21.14;100.00
6038;BME280;3047;42.600;23.470;2023-08-06T01:41:22;91935.56;;;21.17;100.00
6038;BME280;3047;42.600;23.470;2023-08-06T01:43:49;91931.91;;;21.20;100.00
6038;BME280;3047;42.600;23.470;2023-08-06T01:46:15;91926.22;;;21.26;100.00
6038;BME280;3047;42.600;23.470;2023-08-06T01:48:41;91934.59;;;21.09;100.00
6038;BME280;3047;42.600;23.470;2023-08-06T01:51:08;91931.78;;;21.12;100.00
6038;BME280;3047;42.600;23.470;2023-08-06T01:53:36;91939.72;;;21.09;100.00
6038;BME280;3047;42.600;23.470;2023-08-06T01:56:03;91879.28;;;20.56;100.00
6038;BME280;3047;42.600;23.470;2023-08-06T01:58:30;91928.78;;;20.87;100.00
6038;BME280;3047;42.600;23.470;2023-08-06T02:00:56;91921.88;;;20.88;100.00
6038;BME280;3047;42.600;23.470;2023-08-06T02:03:23;91819.78;;;20.22;100.00
6038;BME280;3047;42.600;23.470;2023-08-06T02:05:50;91916.34;;;20.83;100.00
6038;BME280;3047;42.600;23.470;2023-08-06T02:08:17;91922.41;;;20.82;100.00
6038;BME280;3047;42.600;23.470;2023-08-06T02:10:45;91916.84;;;20.77;100.00
6038;BME280;3047;42.600;23.470;2023-08-06T02:13:12;91913.63;;;20.84;100.00
6038;BME280;3047;42.600;23.470;2023-08-06T02:15:42;91909.72;;;20.90;100.00
6038;BME280;3047;42.600;23.470;2023-08-06T02:18:08;91917.69;;;20.87;100.00
6038;BME280;3047;42.600;23.470;2023-08-06T02:20:35;91926.72;;;20.71;100.00
6038;BME280;3047;42.600;23.470;2023-08-06T02:23:02;91901.16;;;20.60;100.00
6038;BME280;3047;42.600;23.470;2023-08-06T02:25:28;91909.97;;;20.37;100.00
6038;BME280;3047;42.600;23.470;2023-08-06T02:27:56;91923.44;;;20.29;100.00
6038;BME280;3047;42.600;23.470;2023-08-06T02:30:23;91936.34;;;19.87;100.00
6038;BME280;3047;42.600;23.470;2023-08-06T02:32:50;91944.41;;;19.83;100.00
6038;BME280;3047;42.600;23.470;2023-08-06T02:35:16;91951.34;;;19.92;100.00
6038;BME280;3047;42.600;23.470;2023-08-06T02:37:43;91949.75;;;20.00;100.00
6038;BME280;3047;42.600;23.470;2023-08-06T02:40:10;91956.16;;;20.06;100.00
6038;BME280;3047;42.600;23.470;2023-08-06T02:42:37;91908.03;;;19.68;100.00
6038;BME280;3047;42.600;23.470;2023-08-06T02:45:06;91944.97;;;20.17;100.00
6038;BME280;3047;42.600;23.470;2023-08-06T02:47:33;91960.38;;;20.17;100.00
6038;BME280;3047;42.600;23.470;2023-08-06T02:50:00;91967.31;;;20.26;100.00
6038;BME280;3047;42.600;23.470;2023-08-06T02:52:27;91968.13;;;20.27;100.00
6038;BME280;3047;42.600;23.470;2023-08-06T02:54:53;91970.44;;;20.30;100.00
6038;BME280;3047;42.600;23.470;2023-08-06T02:57:20;91960.66;;;20.23;100.00
6038;BME280;3047;42.600;23.470;2023-08-06T02:59:46;91948.28;;;20.29;100.00
6038;BME280;3047;42.600;23.470;2023-08-06T03:02:15;91936.00;;;20.32;100.00
6038;BME280;3047;42.600;23.470;2023-08-06T03:04:41;91933.50;;;20.42;100.00
6038;BME280;3047;42.600;23.470;2023-08-06T03:07:08;91935.66;;;20.46;100.00
6038;BME280;3047;42.600;23.470;2023-08-06T03:09:34;91946.63;;;20.18;100.00
6038;BME280;3047;42.600;23.470;2023-08-06T03:12:01;91964.09;;;20.34;100.00
6038;BME280;3047;42.600;23.470;2023-08-06T03:14:28;91966.78;;;20.32;100.00
6038;BME280;3047;42.600;23.470;2023-08-06T03:16:55;91927.38;;;20.33;100.00
6038;BME280;3047;42.600;23.470;2023-08-06T03:19:23;91893.81;;;20.46;100.00
6038;BME280;3047;42.600;23.470;2023-08-06T03:21:49;91877.47;;;20.47;100.00
6038;BME280;3047;42.600;23.470;2023-08-06T03:24:16;91873.84;;;20.49;100.00
6038;BME280;3047;42.600;23.470;2023-08-06T03:26:43;91892.97;;;20.45;100.00
6038;BME280;3047;42.600;23.470;2023-08-06T03:29:09;91914.59;;;20.43;100.00
6038;BME280;3047;42.600;23.470;2023-08-06T03:31:36;91940.41;;;20.20;100.00
6038;BME280;3047;42.600;23.470;2023-08-06T03:34:03;91929.75;;;20.15;100.00
6038;BME280;3047;42.600;23.470;2023-08-06T03:36:31;91951.94;;;20.36;100.00
6038;BME280;3047;42.600;23.470;2023-08-06T03:38:57;91948.19;;;20.40;100.00
6038;BME280;3047;42.600;23.470;2023-08-06T03:41:24;91956.84;;;20.39;100.00
6038;BME280;3047;42.600;23.470;2023-08-06T03:43:51;91963.69;;;20.08;100.00
6038;BME280;3047;42.600;23.470;2023-08-06T03:46:17;91962.75;;;20.09;100.00
6038;BME280;3047;42.600;23.470;2023-08-06T05:11:24;91891.44;;;20.23;100.00
6038;BME280;3047;42.600;23.470;2023-08-06T05:13:50;91891.91;;;20.38;100.00
6038;BME280;3047;42.600;23.470;2023-08-06T05:16:17;91886.25;;;20.44;100.00
6038;BME280;3047;42.600;23.470;2023-08-06T05:18:44;91892.91;;;20.57;100.00
6038;BME280;3047;42.600;23.470;2023-08-06T05:21:10;91886.56;;;20.61;100.00
6038;BME280;3047;42.600;23.470;2023-08-06T05:23:37;91892.41;;;20.63;100.00
6038;BME280;3047;42.600;23.470;2023-08-06T05:26:04;91902.00;;;20.70;100.00
6038;BME280;3047;42.600;23.470;2023-08-06T05:28:32;91906.34;;;20.80;100.00
6038;BME280;3047;42.600;23.470;2023-08-06T05:30:58;91904.31;;;20.83;100.00
6038;BME280;3047;42.600;23.470;2023-08-06T05:33:25;91901.47;;;20.86;100.00
6038;BME280;3047;42.600;23.470;2023-08-06T05:35:52;91907.44;;;20.87;100.00
6038;BME280;3047;42.600;23.470;2023-08-06T05:38:18;91896.06;;;20.89;100.00
6038;BME280;3047;42.600;23.470;2023-08-06T05:40:45;91896.06;;;20.80;100.00
6038;BME280;3047;42.600;23.470;2023-08-06T05:43:12;91894.16;;;20.82;100.00
6038;BME280;3047;42.600;23.470;2023-08-06T05:45:44;91892.97;;;20.76;100.00
6038;BME280;3047;42.600;23.470;2023-08-06T05:48:10;91894.03;;;20.73;100.00
6038;BME280;3047;42.600;23.470;2023-08-06T05:50:37;91888.88;;;20.73;100.00
6038;BME280;3047;42.600;23.470;2023-08-06T05:53:04;91894.03;;;20.73;100.00
6038;BME280;3047;42.600;23.470;2023-08-06T05:55:30;91897.53;;;20.63;100.00
6038;BME280;3047;42.600;23.470;2023-08-06T05:57:58;91896.59;;;20.73;100.00
6038;BME280;3047;42.600;23.470;2023-08-06T06:00:24;91879.44;;;20.64;100.00
6038;BME280;3047;42.600;23.470;2023-08-06T06:02:52;91916.75;;;20.88;100.00
6038;BME280;3047;42.600;23.470;2023-08-06T06:05:19;91918.38;;;20.89;100.00
6038;BME280;3047;42.600;23.470;2023-08-06T06:07:46;91924.03;;;20.92;100.00
6038;BME280;3047;42.600;23.470;2023-08-06T06:10:12;91931.50;;;20.95;100.00
6038;BME280;3047;42.600;23.470;2023-08-06T06:12:41;91935.53;;;20.98;100.00
6038;BME280;3047;42.600;23.470;2023-08-06T06:15:08;91932.69;;;21.01;100.00
6038;BME280;3047;42.600;23.470;2023-08-06T06:17:35;91943.78;;;21.02;100.00
6038;BME280;3047;42.600;23.470;2023-08-06T06:20:04;91954.75;;;21.04;100.00
6038;BME280;3047;42.600;23.470;2023-08-06T06:22:31;91949.06;;;21.00;100.00
6038;BME280;3047;42.600;23.470;2023-08-06T06:24:57;91963.09;;;20.96;100.00
6038;BME280;3047;42.600;23.470;2023-08-06T06:27:24;91960.94;;;20.91;100.00
6038;BME280;3047;42.600;23.470;2023-08-06T06:29:51;91965.22;;;20.81;100.00
6038;BME280;3047;42.600;23.470;2023-08-06T06:32:20;91939.25;;;20.65;100.00
6038;BME280;3047;42.600;23.470;2023-08-06T06:34:46;91958.63;;;20.88;100.00
6038;BME280;3047;42.600;23.470;2023-08-06T06:37:14;91955.00;;;20.91;100.00
6038;BME280;3047;42.600;23.470;2023-08-06T06:39:41;91967.13;;;20.89;100.00
6038;BME280;3047;42.600;23.470;2023-08-06T06:42:09;91969.84;;;20.87;100.00
6038;BME280;3047;42.600;23.470;2023-08-06T06:44:36;91969.78;;;20.78;100.00
6038;BME280;3047;42.600;23.470;2023-08-06T06:47:03;91980.59;;;20.71;100.00
6038;BME280;3047;42.600;23.470;2023-08-06T06:49:30;91986.41;;;20.73;100.00
6038;BME280;3047;42.600;23.470;2023-08-06T06:51:56;91986.16;;;20.77;100.00
6038;BME280;3047;42.600;23.470;2023-08-06T06:54:24;91991.53;;;20.73;100.00
6038;BME280;3047;42.600;23.470;2023-08-06T06:56:51;92001.28;;;20.80;100.00
6038;BME280;3047;42.600;23.470;2023-08-06T06:59:17;92000.19;;;20.82;100.00
6038;BME280;3047;42.600;23.470;2023-08-06T07:01:44;91999.78;;;20.77;100.00
6038;BME280;3047;42.600;23.470;2023-08-06T07:04:11;92013.16;;;20.71;100.00
6038;BME280;3047;42.600;23.470;2023-08-06T07:06:37;92009.25;;;20.77;100.00
6038;BME280;3047;42.600;23.470;2023-08-06T07:09:04;92018.69;;;20.76;100.00
6038;BME280;3047;42.600;23.470;2023-08-06T07:11:32;92019.91;;;20.82;100.00
6038;BME280;3047;42.600;23.470;2023-08-06T07:13:59;92012.91;;;20.84;100.00
6038;BME280;3047;42.600;23.470;2023-08-06T07:16:26;92019.00;;;20.83;100.00
6038;BME280;3047;42.600;23.470;2023-08-06T07:18:54;92024.16;;;20.62;100.00
6038;BME280;3047;42.600;23.470;2023-08-06T07:21:20;92019.19;;;20.70;100.00
6038;BME280;3047;42.600;23.470;2023-08-06T07:23:47;92031.38;;;20.78;100.00
6038;BME280;3047;42.600;23.470;2023-08-06T07:26:15;92027.13;;;20.88;100.00
6038;BME280;3047;42.600;23.470;2023-08-06T07:28:44;92017.25;;;20.93;100.00
6038;BME280;3047;42.600;23.470;2023-08-06T07:31:10;92013.66;;;21.05;100.00
6038;BME280;3047;42.600;23.470;2023-08-06T07:33:37;92024.75;;;21.15;100.00
6038;BME280;3047;42.600;23.470;2023-08-06T07:36:08;92026.94;;;21.20;100.00
6038;BME280;3047;42.600;23.470;2023-08-06T07:38:35;92018.56;;;21.28;100.00
6038;BME280;3047;42.600;23.470;2023-08-06T07:41:02;92020.91;;;21.40;100.00
6038;BME280;3047;42.600;23.470;2023-08-06T07:43:29;91981.66;;;21.29;100.00
6038;BME280;3047;42.600;23.470;2023-08-06T07:45:59;92023.22;;;21.72;100.00
6038;BME280;3047;42.600;23.470;2023-08-06T07:48:26;92026.34;;;21.76;100.00
6038;BME280;3047;42.600;23.470;2023-08-06T07:50:53;92017.38;;;22.09;100.00
6038;BME280;3047;42.600;23.470;2023-08-06T07:53:20;92016.41;;;22.30;100.00
6038;BME280;3047;42.600;23.470;2023-08-06T07:55:49;92021.94;;;22.35;100.00
6038;BME280;3047;42.600;23.470;2023-08-06T07:58:16;92024.09;;;22.49;100.00
6038;BME280;3047;42.600;23.470;2023-08-06T08:00:42;92013.31;;;22.63;100.00
6038;BME280;3047;42.600;23.470;2023-08-06T08:03:12;92010.41;;;22.86;100.00
6038;BME280;3047;42.600;23.470;2023-08-06T08:05:39;91993.72;;;23.17;100.00
6038;BME280;3047;42.600;23.470;2023-08-06T08:08:06;92003.25;;;23.35;100.00
6038;BME280;3047;42.600;23.470;2023-08-06T08:10:33;92015.22;;;23.72;100.00
6038;BME280;3047;42.600;23.470;2023-08-06T08:13:00;91995.00;;;23.85;100.00
6038;BME280;3047;42.600;23.470;2023-08-06T08:15:29;92022.69;;;24.18;100.00
6038;BME280;3047;42.600;23.470;2023-08-06T08:17:57;92016.66;;;24.54;100.00
6038;BME280;3047;42.600;23.470;2023-08-06T08:20:25;91992.44;;;24.81;100.00
6038;BME280;3047;42.600;23.470;2023-08-06T08:22:56;92025.69;;;25.18;100.00
6038;BME280;3047;42.600;23.470;2023-08-06T08:25:23;92027.38;;;25.44;100.00
6038;BME280;3047;42.600;23.470;2023-08-06T08:27:50;92039.41;;;25.69;100.00
6038;BME280;3047;42.600;23.470;2023-08-06T08:30:17;92033.09;;;25.63;96.24
6038;BME280;3047;42.600;23.470;2023-08-06T08:32:43;92024.03;;;25.59;98.53
6038;BME280;3047;42.600;23.470;2023-08-06T08:35:10;92033.81;;;25.82;100.00
6038;BME280;3047;42.600;23.470;2023-08-06T08:37:39;92026.53;;;26.02;94.90
6038;BME280;3047;42.600;23.470;2023-08-06T08:40:07;92033.50;;;26.18;93.85
6038;BME280;3047;42.600;23.470;2023-08-06T08:42:34;92022.00;;;26.36;93.47
6038;BME280;3047;42.600;23.470;2023-08-06T08:45:02;92020.34;;;26.68;89.53
6038;BME280;3047;42.600;23.470;2023-08-06T08:47:29;92009.31;;;26.82;91.46
6038;BME280;3047;42.600;23.470;2023-08-06T08:49:57;91992.22;;;27.04;92.05
6038;BME280;3047;42.600;23.470;2023-08-06T08:52:25;91980.09;;;26.97;90.92
6038;BME280;3047;42.600;23.470;2023-08-06T08:54:57;92001.78;;;27.04;86.81
6038;BME280;3047;42.600;23.470;2023-08-06T08:57:26;91993.03;;;27.13;89.24
6038;BME280;3047;42.600;23.470;2023-08-06T08:59:52;91999.13;;;27.28;86.07
6038;BME280;3047;42.600;23.470;2023-08-06T09:02:21;91993.50;;;27.48;85.96
6038;BME280;3047;42.600;23.470;2023-08-06T09:04:48;91991.91;;;27.70;87.98
6038;BME280;3047;42.600;23.470;2023-08-06T09:07:18;91993.66;;;27.77;87.67
6038;BME280;3047;42.600;23.470;2023-08-06T09:09:47;91986.38;;;27.73;80.11
6038;BME280;3047;42.600;23.470;2023-08-06T09:12:16;91978.28;;;27.76;81.75
6038;BME280;3047;42.600;23.470;2023-08-06T09:14:43;91973.97;;;27.83;79.86
6038;BME280;3047;42.600;23.470;2023-08-06T09:17:10;91967.09;;;27.75;80.67
6038;BME280;3047;42.600;23.470;2023-08-06T09:19:37;91974.03;;;27.52;80.67
6038;BME280;3047;42.600;23.470;2023-08-06T09:22:04;91965.72;;;27.56;84.42
6038;BME280;3047;42.600;23.470;2023-08-06T09:24:38;91960.59;;;27.71;84.65
6038;BME280;3047;42.600;23.470;2023-08-06T09:27:05;91963.66;;;27.98;82.84
6038;BME280;3047;42.600;23.470;2023-08-06T09:29:33;91972.19;;;28.06;76.84
6038;BME280;3047;42.600;23.470;2023-08-06T09:31:59;91965.03;;;28.08;77.42
6038;BME280;3047;42.600;23.470;2023-08-06T09:34:26;91966.38;;;28.19;76.84
6038;BME280;3047;42.600;23.470;2023-08-06T09:36:53;91944.00;;;28.18;78.67
6038;BME280;3047;42.600;23.470;2023-08-06T09:39:25;91957.03;;;28.33;77.93
6038;BME280;3047;42.600;23.470;2023-08-06T09:41:56;91949.41;;;28.17;75.04
6038;BME280;3047;42.600;23.470;2023-08-06T09:44:24;91906.88;;;27.80;74.35
6038;BME280;3047;42.600;23.470;2023-08-06T09:46:53;91935.38;;;27.88;75.03
6038;BME280;3047;42.600;23.470;2023-08-06T09:49:24;91948.59;;;28.16;77.75
6038;BME280;3047;42.600;23.470;2023-08-06T09:51:52;91945.78;;;28.41;75.52
6038;BME280;3047;42.600;23.470;2023-08-06T09:54:22;91942.38;;;28.40;75.90
6038;BME280;3047;42.600;23.470;2023-08-06T09:56:50;91946.41;;;28.57;78.29
6038;BME280;3047;42.600;23.470;2023-08-06T09:59:18;91961.09;;;28.50;77.18
6038;BME280;3047;42.600;23.470;2023-08-06T10:01:45;91951.78;;;28.56;78.28
6038;BME280;3047;42.600;23.470;2023-08-06T10:04:15;91963.72;;;28.65;76.00
6038;BME280;3047;42.600;23.470;2023-08-06T10:06:46;91941.28;;;28.64;74.99
6038;BME280;3047;42.600;23.470;2023-08-06T10:09:14;91964.06;;;28.62;74.08
6038;BME280;3047;42.600;23.470;2023-08-06T10:11:42;91963.78;;;28.72;72.15
6038;BME280;3047;42.600;23.470;2023-08-06T10:14:12;91968.91;;;28.65;73.69
6038;BME280;3047;42.600;23.470;2023-08-06T10:16:40;91971.16;;;28.30;70.15
6038;BME280;3047;42.600;23.470;2023-08-06T10:19:09;91972.03;;;28.23;73.96
6038;BME280;3047;42.600;23.470;2023-08-06T10:21:39;91977.84;;;28.10;68.89
6038;BME280;3047;42.600;23.470;2023-08-06T10:24:07;91975.97;;;27.81;75.96
6038;BME280;3047;42.600;23.470;2023-08-06T10:26:36;91965.53;;;27.58;72.19
6038;BME280;3047;42.600;23.470;2023-08-06T10:32:05;91972.03;;;26.92;73.19
6038;BME280;3047;42.600;23.470;2023-08-06T10:34:54;91972.63;;;26.62;74.69
6038;BME280;3047;42.600;23.470;2023-08-06T10:37:23;91921.25;;;26.02;76.03
6038;BME280;3047;42.600;23.470;2023-08-06T10:39:50;91989.81;;;26.23;79.33
6038;BME280;3047;42.600;23.470;2023-08-06T10:42:21;91990.16;;;26.03;76.96
6038;BME280;3047;42.600;23.470;2023-08-06T10:45:13;91989.84;;;25.90;77.16
6038;BME280;3047;42.600;23.470;2023-08-06T10:47:41;91995.59;;;25.76;76.53
6038;BME280;3047;42.600;23.470;2023-08-06T10:50:11;92005.13;;;25.59;76.96
6038;BME280;3047;42.600;23.470;2023-08-06T10:52:39;92009.88;;;25.21;76.78
6038;BME280;3047;42.600;23.470;2023-08-06T10:55:07;92006.78;;;25.09;80.62
6038;BME280;3047;42.600;23.470;2023-08-06T10:57:34;92007.28;;;24.87;79.21
6038;BME280;3047;42.600;23.470;2023-08-06T11:00:01;92017.28;;;24.82;80.03
6038;BME280;3047;42.600;23.470;2023-08-06T11:02:28;92019.47;;;24.69;78.84
6038;BME280;3047;42.600;23.470;2023-08-06T11:04:54;92021.75;;;24.72;81.57
6038;BME280;3047;42.600;23.470;2023-08-06T11:07:21;92034.34;;;24.75;82.03
6038;BME280;3047;42.600;23.470;2023-08-06T11:09:51;92024.66;;;24.69;82.50
6038;BME280;3047;42.600;23.470;2023-08-06T11:12:19;92034.59;;;24.55;84.33
6038;BME280;3047;42.600;23.470;2023-08-06T11:14:50;92039.03;;;24.45;84.90
6038;BME280;3047;42.600;23.470;2023-08-06T11:17:17;92027.91;;;24.45;88.04
6038;BME280;3047;42.600;23.470;2023-08-06T11:19:44;92030.78;;;24.24;83.87
6038;BME280;3047;42.600;23.470;2023-08-06T11:22:11;92033.22;;;24.25;88.17
6038;BME280;3047;42.600;23.470;2023-08-06T11:24:38;92004.31;;;24.22;90.56
6038;BME280;3047;42.600;23.470;2023-08-06T11:27:12;92032.25;;;24.44;88.19
6038;BME280;3047;42.600;23.470;2023-08-06T11:29:40;92031.63;;;24.76;90.26
6038;BME280;3047;42.600;23.470;2023-08-06T11:32:07;92020.59;;;25.34;90.82
6038;BME280;3047;42.600;23.470;2023-08-06T11:34:34;92026.47;;;25.61;88.44
6038;BME280;3047;42.600;23.470;2023-08-06T11:37:03;92025.97;;;25.57;86.53
6038;BME280;3047;42.600;23.470;2023-08-06T11:39:31;92018.31;;;25.39;84.05
6038;BME280;3047;42.600;23.470;2023-08-06T11:41:57;92034.00;;;25.38;82.85
6038;BME280;3047;42.600;23.470;2023-08-06T11:44:29;92022.84;;;25.03;85.40
6038;BME280;3047;42.600;23.470;2023-08-06T11:46:57;92012.19;;;24.98;77.10
6038;BME280;3047;42.600;23.470;2023-08-06T11:49:40;92011.38;;;24.98;77.04
6038;BME280;3047;42.600;23.470;2023-08-06T11:52:16;92022.06;;;25.03;79.27
6038;BME280;3047;42.600;23.470;2023-08-06T11:54:45;92032.81;;;25.16;74.68
6038;BME280;3047;42.600;23.470;2023-08-06T11:57:12;92026.50;;;25.19;74.15
6038;BME280;3047;42.600;23.470;2023-08-06T11:59:40;92022.56;;;25.06;78.35
6038;BME280;3047;42.600;23.470;2023-08-06T12:02:09;92033.78;;;24.89;74.94
6038;BME280;3047;42.600;23.470;2023-08-06T12:04:57;92032.47;;;24.85;76.79
6038;BME280;3047;42.600;23.470;2023-08-06T12:07:27;92034.06;;;24.78;78.27
6038;BME280;3047;42.600;23.470;2023-08-06T12:09:53;92041.47;;;24.73;80.91
6038;BME280;3047;42.600;23.470;2023-08-06T12:12:20;92043.03;;;24.65;80.56
6038;BME280;3047;42.600;23.470;2023-08-06T12:14:48;91985.09;;;24.16;80.91
6038;BME280;3047;42.600;23.470;2023-08-06T12:17:15;92042.75;;;24.51;81.78
6038;BME280;3047;42.600;23.470;2023-08-06T12:19:41;92036.59;;;24.44;79.34
6038;BME280;3047;42.600;23.470;2023-08-06T12:22:08;92029.22;;;24.49;82.28
6038;BME280;3047;42.600;23.470;2023-08-06T12:24:35;92025.38;;;24.53;82.27
6038;BME280;3047;42.600;23.470;2023-08-06T12:27:01;92024.44;;;24.62;78.89
6038;BME280;3047;42.600;23.470;2023-08-06T12:29:28;92012.19;;;24.64;83.40
6038;BME280;3047;42.600;23.470;2023-08-06T12:31:57;92021.72;;;24.63;84.06
6038;BME280;3047;42.600;23.470;2023-08-06T12:34:24;91977.47;;;24.32;83.26
6038;BME280;3047;42.600;23.470;2023-08-06T12:36:51;92015.63;;;24.47;81.84
6038;BME280;3047;42.600;23.470;2023-08-06T12:39:18;92029.25;;;24.57;84.57
6038;BME280;3047;42.600;23.470;2023-08-06T12:41:44;92031.63;;;24.50;83.63
6038;BME280;3047;42.600;23.470;2023-08-06T12:44:12;92011.91;;;24.41;85.09
6038;BME280;3047;42.600;23.470;2023-08-06T12:46:38;92022.16;;;24.59;81.71
6038;BME280;3047;42.600;23.470;2023-08-06T12:49:06;92022.28;;;24.49;78.81
6038;BME280;3047;42.600;23.470;2023-08-06T12:51:33;92024.22;;;24.47;84.64
6038;BME280;3047;42.600;23.470;2023-08-06T12:54:00;92026.84;;;24.55;84.84
6038;BME280;3047;42.600;23.470;2023-08-06T12:56:27;92022.66;;;24.62;85.50
6038;BME280;3047;42.600;23.470;2023-08-06T12:58:54;92018.34;;;24.71;85.63
6038;BME280;3047;42.600;23.470;2023-08-06T13:01:21;92015.63;;;24.73;83.35
6038;BME280;3047;42.600;23.470;2023-08-06T13:03:47;92010.75;;;24.70;83.31
6038;BME280;3047;42.600;23.470;2023-08-06T13:06:15;92011.06;;;24.66;83.89
6038;BME280;3047;42.600;23.470;2023-08-06T13:08:42;92011.44;;;24.72;84.93
6038;BME280;3047;42.600;23.470;2023-08-06T13:11:09;92014.19;;;24.78;85.44
6038;BME280;3047;42.600;23.470;2023-08-06T13:13:36;92016.97;;;24.85;86.06
6038;BME280;3047;42.600;23.470;2023-08-06T13:16:03;92005.72;;;24.94;86.76
6038;BME280;3047;42.600;23.470;2023-08-06T13:18:30;92005.75;;;25.02;85.96
6038;BME280;3047;42.600;23.470;2023-08-06T13:20:56;92014.38;;;25.19;82.16
6038;BME280;3047;42.600;23.470;2023-08-06T13:23:24;92014.25;;;25.21;85.22
6038;BME280;3047;42.600;23.470;2023-08-06T13:25:51;92018.78;;;25.27;82.43
6038;BME280;3047;42.600;23.470;2023-08-06T13:28:18;92017.94;;;25.18;84.42
6038;BME280;3047;42.600;23.470;2023-08-06T13:30:45;92021.66;;;25.24;83.38
6038;BME280;3047;42.600;23.470;2023-08-06T13:33:12;92023.91;;;25.19;81.06
6038;BME280;3047;42.600;23.470;2023-08-06T13:35:38;92020.69;;;25.17;81.61
6038;BME280;3047;42.600;23.470;2023-08-06T13:38:06;92018.28;;;25.23;79.57
6038;BME280;3047;42.600;23.470;2023-08-06T13:40:35;91992.56;;;25.13;78.01
6038;BME280;3047;42.600;23.470;2023-08-06T13:43:02;92014.31;;;25.45;78.72
6038;BME280;3047;42.600;23.470;2023-08-06T13:45:29;91991.31;;;25.26;79.38
6038;BME280;3047;42.600;23.470;2023-08-06T13:47:56;92028.84;;;25.46;78.46
6038;BME280;3047;42.600;23.470;2023-08-06T13:50:23;92034.03;;;25.46;82.84
6038;BME280;3047;42.600;23.470;2023-08-06T13:52:51;92031.91;;;25.42;80.08
6038;BME280;3047;42.600;23.470;2023-08-06T13:55:21;92033.34;;;25.36;78.80
6038;BME280;3047;42.600;23.470;2023-08-06T13:57:49;92036.75;;;25.36;78.42
6038;BME280;3047;42.600;23.470;2023-08-06T14:00:16;92036.91;;;25.35;78.76
6038;BME280;3047;42.600;23.470;2023-08-06T14:02:43;92035.59;;;25.31;77.32
6038;BME280;3047;42.600;23.470;2023-08-06T14:05:10;92031.22;;;25.31;78.33
6038;BME280;3047;42.600;23.470;2023-08-06T14:07:37;92033.50;;;25.34;76.26
6038;BME280;3047;42.600;23.470;2023-08-06T14:10:04;92029.44;;;25.32;79.64
6038;BME280;3047;42.600;23.470;2023-08-06T14:12:31;92034.81;;;25.38;79.70
6038;BME280;3047;42.600;23.470;2023-08-06T14:14:59;92033.84;;;25.39;79.57
6038;BME280;3047;42.600;23.470;2023-08-06T14:17:27;92042.25;;;25.42;79.10
6038;BME280;3047;42.600;23.470;2023-08-06T14:19:53;92003.56;;;25.15;79.29
6038;BME280;3047;42.600;23.470;2023-08-06T14:22:21;92034.63;;;25.32;79.74
6038;BME280;3047;42.600;23.470;2023-08-06T14:24:47;92029.81;;;25.37;78.03
6038;BME280;3047;42.600;23.470;2023-08-06T14:27:14;92031.75;;;25.43;76.63
6038;BME280;3047;42.600;23.470;2023-08-06T14:29:41;92021.91;;;25.47;76.79
6038;BME280;3047;42.600;23.470;2023-08-06T14:32:09;92015.78;;;25.56;75.31